createdAt,value
2019-01-23T00:00:48.136Z,79.28
2019-01-23T00:03:52.056Z,79.44
2019-01-23T00:06:55.852Z,79.02
2019-01-23T00:09:59.743Z,79.25
2019-01-23T00:13:03.651Z,79.55
2019-01-23T00:16:07.581Z,79.82
2019-01-23T00:19:11.577Z,79.83
2019-01-23T00:22:15.515Z,79.97
2019-01-23T00:25:19.309Z,79.99
2019-01-23T00:28:23.163Z,80.36
2019-01-23T00:31:27.087Z,80.31
2019-01-23T00:34:30.934Z,80.30
2019-01-23T00:37:34.762Z,80.27
2019-01-23T00:40:38.566Z,80.52
2019-01-23T00:43:42.417Z,80.39
2019-01-23T00:46:46.264Z,80.60
2019-01-23T00:49:50.074Z,80.84
2019-01-23T00:52:53.935Z,81.03
2019-01-23T00:55:57.771Z,81.17
2019-01-23T00:59:01.622Z,81.26
2019-01-23T01:02:06.171Z,81.37
2019-01-23T01:05:10.432Z,81.59
2019-01-23T01:08:14.261Z,81.59
2019-01-23T01:11:18.207Z,81.55
2019-01-23T01:14:22.057Z,81.61
2019-01-23T01:17:25.951Z,81.63
2019-01-23T01:20:29.943Z,81.57
2019-01-23T01:23:33.851Z,81.55
2019-01-23T01:26:37.697Z,81.61
2019-01-23T01:29:41.531Z,81.61
2019-01-23T01:32:45.532Z,81.73
2019-01-23T01:35:49.398Z,81.81
2019-01-23T01:38:53.288Z,81.85
2019-01-23T01:41:57.134Z,82.01
2019-01-23T01:45:01.028Z,82.12
2019-01-23T01:48:05.365Z,82.12
2019-01-23T01:51:09.204Z,82.12
2019-01-23T01:54:13.025Z,82.14
2019-01-23T01:57:17.029Z,82.23
2019-01-23T02:00:22.987Z,82.29
2019-01-23T02:03:26.817Z,82.31
2019-01-23T02:06:30.785Z,82.25
2019-01-23T02:09:35.583Z,82.21
2019-01-23T02:12:39.597Z,82.31
2019-01-23T02:15:43.438Z,82.38
2019-01-23T02:18:47.315Z,82.43
2019-01-23T02:21:51.210Z,82.47
2019-01-23T02:24:55.039Z,82.60
2019-01-23T02:27:59.015Z,82.47
2019-01-23T02:31:02.926Z,82.53
2019-01-23T02:34:06.874Z,82.54
2019-01-23T02:37:10.725Z,82.66
2019-01-23T02:40:17.207Z,82.70
2019-01-23T02:43:21.120Z,82.76
2019-01-23T02:46:24.998Z,82.85
2019-01-23T02:49:28.782Z,82.95
2019-01-23T02:52:32.608Z,83.07
2019-01-23T02:55:36.416Z,83.18
2019-01-23T02:58:40.279Z,83.39
2019-01-23T03:01:44.124Z,83.56
2019-01-23T03:04:47.911Z,83.72
2019-01-23T03:07:51.828Z,84.02
2019-01-23T03:10:55.652Z,84.14
2019-01-23T03:13:59.573Z,84.18
2019-01-23T03:17:03.538Z,84.21
2019-01-23T03:20:09.152Z,84.16
2019-01-23T03:23:12.975Z,84.29
2019-01-23T03:26:16.815Z,84.30
2019-01-23T03:29:24.570Z,84.41
2019-01-23T03:32:26.209Z,84.59
2019-01-23T03:35:30.122Z,84.71
2019-01-23T03:38:34.121Z,84.79
2019-01-23T03:41:38.119Z,84.92
2019-01-23T03:44:41.998Z,84.94
2019-01-23T03:47:48.149Z,85.05
2019-01-23T03:50:51.917Z,85.17
2019-01-23T03:53:55.699Z,85.15
2019-01-23T03:56:59.626Z,85.16
2019-01-23T04:00:04.138Z,85.29
2019-01-23T04:03:08.142Z,85.32
2019-01-23T04:06:12.019Z,85.35
2019-01-23T04:09:15.840Z,85.53
2019-01-23T04:12:19.711Z,85.52
2019-01-23T04:15:23.592Z,85.49
2019-01-23T04:18:27.564Z,85.57
2019-01-23T04:21:31.444Z,85.54
2019-01-23T04:24:35.261Z,85.55
2019-01-23T04:27:39.141Z,85.56
2019-01-23T04:30:42.958Z,85.63
2019-01-23T04:33:46.763Z,85.72
2019-01-23T04:36:50.572Z,85.73
2019-01-23T04:39:54.370Z,85.82
2019-01-23T04:42:58.275Z,85.98
2019-01-23T04:46:02.097Z,86.01
2019-01-23T04:49:05.987Z,85.99
2019-01-23T04:52:15.194Z,86.00
2019-01-23T04:55:19.213Z,86.03
2019-01-23T04:58:23.017Z,86.05
2019-01-23T05:01:26.976Z,86.03
2019-01-23T05:04:30.864Z,85.99
2019-01-23T05:07:34.665Z,86.08
2019-01-23T05:10:38.490Z,86.22
2019-01-23T05:13:42.301Z,86.24
2019-01-23T05:16:46.123Z,86.23
2019-01-23T05:19:49.948Z,86.10
2019-01-23T05:22:53.901Z,86.06
2019-01-23T05:25:57.859Z,85.93
2019-01-23T05:29:01.697Z,85.90
2019-01-23T05:32:05.642Z,85.88
2019-01-23T05:35:09.635Z,85.97
2019-01-23T05:38:13.535Z,85.96
2019-01-23T05:41:17.363Z,85.91
2019-01-23T05:44:22.301Z,85.93
2019-01-23T05:47:26.172Z,85.97
2019-01-23T05:50:30.092Z,86.08
2019-01-23T05:53:33.901Z,86.15
2019-01-23T05:56:37.789Z,86.19
2019-01-23T05:59:41.624Z,86.20
2019-01-23T06:02:45.565Z,86.28
2019-01-23T06:05:49.520Z,86.39
2019-01-23T06:08:53.371Z,86.51
2019-01-23T06:11:57.169Z,86.46
2019-01-23T06:15:01.094Z,86.46
2019-01-23T06:18:05.054Z,86.41
2019-01-23T06:21:08.950Z,86.42
2019-01-23T06:24:12.817Z,86.55
2019-01-23T06:27:16.747Z,86.60
2019-01-23T06:30:23.079Z,86.65
2019-01-23T06:33:26.882Z,86.73
2019-01-23T06:36:30.790Z,86.76
2019-01-23T06:39:34.676Z,86.79
2019-01-23T06:42:38.678Z,86.78
2019-01-23T06:45:42.482Z,86.75
2019-01-23T06:48:46.302Z,86.73
2019-01-23T06:51:50.129Z,86.66
2019-01-23T06:54:53.956Z,86.62
2019-01-23T06:57:57.762Z,86.63
2019-01-23T07:01:01.592Z,86.62
2019-01-23T07:04:05.631Z,86.58
2019-01-23T07:07:09.458Z,86.54
2019-01-23T07:10:18.912Z,86.51
2019-01-23T07:13:22.787Z,86.53
2019-01-23T07:16:26.606Z,86.60
2019-01-23T07:19:30.434Z,86.61
2019-01-23T07:22:34.233Z,86.59
2019-01-23T07:25:38.120Z,86.67
2019-01-23T07:28:41.922Z,86.77
2019-01-23T07:31:45.823Z,86.81
2019-01-23T07:34:49.715Z,86.81
2019-01-23T07:37:53.628Z,86.85
2019-01-23T07:40:57.537Z,86.98
2019-01-23T07:44:01.378Z,87.12
2019-01-23T07:47:05.258Z,87.02
2019-01-23T07:50:10.402Z,87.16
2019-01-23T07:53:14.280Z,87.23
2019-01-23T07:56:18.108Z,87.56
2019-01-23T07:59:21.994Z,87.67
2019-01-23T08:02:25.801Z,87.70
2019-01-23T08:05:29.672Z,87.61
2019-01-23T08:08:33.553Z,87.58
2019-01-23T08:11:37.433Z,87.61
2019-01-23T08:14:42.205Z,87.62
2019-01-23T08:17:46.104Z,87.66
2019-01-23T08:20:50.343Z,87.56
2019-01-23T08:23:54.156Z,87.65
2019-01-23T08:26:58.047Z,87.65
2019-01-23T08:30:01.854Z,87.80
2019-01-23T08:33:06.043Z,87.82
2019-01-23T08:36:09.981Z,87.88
2019-01-23T08:39:13.908Z,87.98
2019-01-23T08:42:17.702Z,87.93
2019-01-23T08:45:21.700Z,87.94
2019-01-23T08:48:25.509Z,87.94
2019-01-23T08:51:29.333Z,87.95
2019-01-23T08:54:33.134Z,87.73
2019-01-23T08:57:36.957Z,87.78
2019-01-23T09:00:45.777Z,87.65
2019-01-23T09:03:46.473Z,87.36
2019-01-23T09:06:50.271Z,87.19
2019-01-23T09:09:54.085Z,87.00
2019-01-23T09:12:57.968Z,87.00
2019-01-23T09:16:01.857Z,86.96
2019-01-23T09:19:05.749Z,86.87
2019-01-23T09:22:09.622Z,86.78
2019-01-23T09:25:15.908Z,86.84
2019-01-23T09:28:19.731Z,86.75
2019-01-23T09:31:58.047Z,86.85
2019-01-23T09:35:22.580Z,86.71
2019-01-23T09:39:00.566Z,86.50
2019-01-23T09:42:41.850Z,86.50
2019-01-23T09:46:45.174Z,86.62
2019-01-23T09:50:02.069Z,86.52
2019-01-23T09:53:14.472Z,85.83
2019-01-23T09:56:19.361Z,85.46
2019-01-23T09:59:23.176Z,85.87
2019-01-23T10:02:26.985Z,85.60
2019-01-23T10:05:30.802Z,85.83
2019-01-23T10:08:34.696Z,86.07
2019-01-23T10:11:38.527Z,86.15
2019-01-23T10:14:42.381Z,86.09
2019-01-23T10:17:46.267Z,86.26
2019-01-23T10:20:50.200Z,86.55
2019-01-23T10:23:53.994Z,86.51
2019-01-23T10:26:57.963Z,86.70
2019-01-23T10:30:01.875Z,86.25
2019-01-23T10:33:05.817Z,85.75
2019-01-23T10:36:09.840Z,85.47
2019-01-23T10:39:13.657Z,84.57
2019-01-23T10:42:17.618Z,84.82
2019-01-23T10:45:21.577Z,84.97
2019-01-23T10:48:25.400Z,84.55
2019-01-23T10:51:29.296Z,84.32
2019-01-23T10:54:33.153Z,84.00
2019-01-23T10:57:37.115Z,84.24
2019-01-23T11:00:41.115Z,83.46
2019-01-23T11:03:44.988Z,83.17
2019-01-23T11:06:48.809Z,83.26
2019-01-23T11:09:52.695Z,83.04
2019-01-23T11:12:56.515Z,82.48
2019-01-23T11:16:00.482Z,81.96
2019-01-23T11:19:04.569Z,81.82
2019-01-23T11:22:08.447Z,81.81
2019-01-23T11:25:12.835Z,81.47
2019-01-23T11:28:16.791Z,81.47
2019-01-23T11:31:20.717Z,81.68
2019-01-23T11:34:24.660Z,81.51
2019-01-23T11:37:28.560Z,81.53
2019-01-23T11:40:32.607Z,81.07
2019-01-23T11:43:36.559Z,81.24
2019-01-23T11:46:40.581Z,81.04
2019-01-23T11:49:44.400Z,81.23
2019-01-23T11:52:49.409Z,81.05
2019-01-23T11:55:53.210Z,80.83
2019-01-23T11:58:57.023Z,80.51
2019-01-23T12:02:00.993Z,80.32
2019-01-23T12:05:06.084Z,80.12
2019-01-23T12:08:10.161Z,80.24
2019-01-23T12:11:14.091Z,80.04
2019-01-23T12:14:17.914Z,79.99
2019-01-23T12:17:21.731Z,79.47
2019-01-23T12:20:25.708Z,79.45
2019-01-23T12:23:29.533Z,79.48
2019-01-23T12:26:33.444Z,79.19
2019-01-23T12:29:37.286Z,79.22
2019-01-23T12:32:41.197Z,79.12
2019-01-23T12:35:45.087Z,78.77
2019-01-23T12:38:48.919Z,78.76
2019-01-23T12:41:52.925Z,78.78
2019-01-23T12:44:56.843Z,78.08
2019-01-23T12:48:00.848Z,78.36
2019-01-23T12:51:04.834Z,78.30
2019-01-23T12:54:08.747Z,78.54
2019-01-23T12:57:12.638Z,78.63
2019-01-23T13:00:24.802Z,78.69
2019-01-23T13:03:28.772Z,78.35
2019-01-23T13:06:32.837Z,78.38
2019-01-23T13:09:36.718Z,78.52
2019-01-23T13:12:40.806Z,78.43
2019-01-23T13:15:44.606Z,78.63
2019-01-23T13:18:48.421Z,78.71
2019-01-23T13:21:52.252Z,78.81
2019-01-23T13:24:56.053Z,78.40
2019-01-23T13:28:01.750Z,78.68
2019-01-23T13:31:05.719Z,78.73
2019-01-23T13:34:09.588Z,78.86
2019-01-23T13:37:13.496Z,78.46
2019-01-23T13:40:37.026Z,78.53
2019-01-23T13:43:40.843Z,78.57
2019-01-23T13:46:44.853Z,78.16
2019-01-23T13:49:48.662Z,78.37
2019-01-23T13:52:52.558Z,78.65
2019-01-23T13:55:56.507Z,78.66
2019-01-23T13:59:00.403Z,78.95
2019-01-23T14:02:04.387Z,78.70
2019-01-23T14:05:09.163Z,78.53
2019-01-23T14:08:13.129Z,78.45
2019-01-23T14:11:16.959Z,78.57
2019-01-23T14:14:20.774Z,78.70
2019-01-23T14:17:24.613Z,78.79
2019-01-23T14:20:28.803Z,78.96
2019-01-23T14:23:32.625Z,78.96
2019-01-23T14:26:36.427Z,79.12
2019-01-23T14:29:40.336Z,79.36
2019-01-23T14:32:44.211Z,79.47
2019-01-23T14:35:48.396Z,79.59
2019-01-23T14:38:52.210Z,79.83
2019-01-23T14:41:56.154Z,79.83
2019-01-23T14:44:59.963Z,80.26
2019-01-23T14:48:04.171Z,80.43
2019-01-23T14:51:08.041Z,80.55
2019-01-23T14:54:11.848Z,80.65
2019-01-23T14:57:15.757Z,80.72
2019-01-23T15:00:25.066Z,80.92
2019-01-23T15:03:28.913Z,80.94
2019-01-23T15:06:32.783Z,81.11
2019-01-23T15:09:36.605Z,81.35
2019-01-23T15:12:40.536Z,81.43
2019-01-23T15:15:44.437Z,81.34
2019-01-23T15:18:48.296Z,81.50
2019-01-23T15:21:52.116Z,81.61
2019-01-23T15:24:56.033Z,81.80
2019-01-23T15:27:59.972Z,81.88
2019-01-23T15:31:03.973Z,81.88
2019-01-23T15:34:08.162Z,81.87
2019-01-23T15:37:11.965Z,81.98
2019-01-23T15:40:18.941Z,81.95
2019-01-23T15:43:22.758Z,82.02
2019-01-23T15:46:26.643Z,81.99
2019-01-23T15:49:30.611Z,82.26
2019-01-23T15:52:34.395Z,82.34
2019-01-23T15:55:38.371Z,82.31
2019-01-23T15:58:42.238Z,82.47
2019-01-23T16:01:46.136Z,82.32
2019-01-23T16:04:49.986Z,82.41
2019-01-23T16:07:53.866Z,82.72
2019-01-23T16:10:57.771Z,82.77
2019-01-23T16:14:01.587Z,82.92
2019-01-23T16:17:05.597Z,83.06
2019-01-23T16:20:10.532Z,83.03
2019-01-23T16:23:14.493Z,83.07
2019-01-23T16:26:18.386Z,83.17
2019-01-23T16:29:22.231Z,83.10
2019-01-23T16:32:31.436Z,83.18
2019-01-23T16:35:38.494Z,83.23
2019-01-23T16:38:38.051Z,83.29
2019-01-23T16:41:41.878Z,83.24
2019-01-23T16:44:45.773Z,83.18
2019-01-23T16:47:49.858Z,82.80
2019-01-23T16:50:53.732Z,82.89
2019-01-23T16:53:57.559Z,83.08
2019-01-23T16:57:01.429Z,83.38
2019-01-23T17:00:07.700Z,83.57
2019-01-23T17:03:12.183Z,83.69
2019-01-23T17:06:16.097Z,83.69
2019-01-23T17:09:20.053Z,83.48
2019-01-23T17:12:23.881Z,83.54
2019-01-23T17:15:27.860Z,83.48
2019-01-23T17:18:31.749Z,83.52
2019-01-23T17:21:35.546Z,83.57
2019-01-23T17:24:39.374Z,83.29
2019-01-23T17:27:43.260Z,83.11
2019-01-23T17:30:47.166Z,83.15
2019-01-23T17:33:51.038Z,82.90
2019-01-23T17:36:54.953Z,82.88
2019-01-23T17:39:58.749Z,82.88
2019-01-23T17:43:02.675Z,82.71
2019-01-23T17:46:06.535Z,82.74
2019-01-23T17:49:10.431Z,82.50
2019-01-23T17:52:14.228Z,82.59
2019-01-23T17:55:21.385Z,82.52
2019-01-23T17:58:25.270Z,82.27
2019-01-23T18:01:29.229Z,82.08
2019-01-23T18:04:33.071Z,82.15
2019-01-23T18:07:37.070Z,82.28
2019-01-23T18:10:40.858Z,82.24
2019-01-23T18:13:44.665Z,82.25
2019-01-23T18:16:48.533Z,82.27
2019-01-23T18:19:52.357Z,82.19
2019-01-23T18:22:56.357Z,82.14
2019-01-23T18:26:00.238Z,82.02
2019-01-23T18:29:04.209Z,82.04
2019-01-23T18:32:09.930Z,82.10
2019-01-23T18:35:38.437Z,82.20
2019-01-23T18:38:57.266Z,82.20
2019-01-23T18:42:33.786Z,82.12
2019-01-23T18:46:22.611Z,82.12
2019-01-23T18:50:12.502Z,82.08
2019-01-23T18:53:16.487Z,82.00
2019-01-23T18:56:20.359Z,81.95
2019-01-23T18:59:24.166Z,82.06
2019-01-23T19:02:28.062Z,82.11
2019-01-23T19:05:31.950Z,82.17
2019-01-23T19:08:35.759Z,82.19
2019-01-23T19:11:39.647Z,82.25
2019-01-23T19:14:43.722Z,82.14
2019-01-23T19:17:47.665Z,82.03
2019-01-23T19:20:51.604Z,82.09
2019-01-23T19:23:55.498Z,82.13
2019-01-23T19:26:59.439Z,82.12
2019-01-23T19:30:09.183Z,82.12
2019-01-23T19:33:13.506Z,82.15
2019-01-23T19:36:15.446Z,82.18
2019-01-23T19:39:19.310Z,82.11
2019-01-23T19:42:23.132Z,82.09
2019-01-23T19:45:26.943Z,82.17
2019-01-23T19:48:30.839Z,82.19
2019-01-23T19:51:34.796Z,82.21
2019-01-23T19:54:38.681Z,82.21
2019-01-23T19:57:42.475Z,82.30
2019-01-23T20:00:46.356Z,82.42
2019-01-23T20:03:50.165Z,82.48
2019-01-23T20:06:54.039Z,82.61
2019-01-23T20:09:57.927Z,82.48
2019-01-23T20:13:01.797Z,82.32
2019-01-23T20:16:05.663Z,82.28
2019-01-23T20:19:12.997Z,82.32
2019-01-23T20:22:16.826Z,82.39
2019-01-23T20:25:22.825Z,82.87
2019-01-23T20:28:26.750Z,84.03
2019-01-23T20:31:30.565Z,84.60
2019-01-23T20:34:34.468Z,84.74
2019-01-23T20:37:38.275Z,84.60
2019-01-23T20:40:42.161Z,85.26
2019-01-23T20:43:45.968Z,85.40
2019-01-23T20:46:49.870Z,85.49
2019-01-23T20:49:53.692Z,85.68
2019-01-23T20:52:57.504Z,85.99
2019-01-23T20:56:01.338Z,86.10
2019-01-23T20:59:05.522Z,86.09
2019-01-23T21:02:09.473Z,86.06
2019-01-23T21:05:13.373Z,85.93
2019-01-23T21:08:17.224Z,85.80
2019-01-23T21:11:21.043Z,85.65
2019-01-23T21:14:24.950Z,85.57
2019-01-23T21:17:28.859Z,85.54
2019-01-23T21:20:35.198Z,85.50
2019-01-23T21:23:39.029Z,85.43
2019-01-23T21:26:42.903Z,85.37
2019-01-23T21:29:46.743Z,85.31
2019-01-23T21:32:50.538Z,85.29
2019-01-23T21:35:54.357Z,85.29
2019-01-23T21:38:58.179Z,85.25
2019-01-23T21:42:02.061Z,85.16
2019-01-23T21:45:07.406Z,85.26
2019-01-23T21:48:11.212Z,85.28
2019-01-23T21:51:15.134Z,85.25
2019-01-23T21:54:18.939Z,85.28
2019-01-23T21:57:22.831Z,85.24
2019-01-23T22:00:38.527Z,85.18
2019-01-23T22:03:49.057Z,85.12
2019-01-23T22:06:47.957Z,85.09
2019-01-23T22:09:51.856Z,85.02
2019-01-23T22:12:55.653Z,85.01
2019-01-23T22:15:59.639Z,85.01
2019-01-23T22:19:03.418Z,85.01
2019-01-23T22:22:08.046Z,85.08
2019-01-23T22:25:13.192Z,85.12
2019-01-23T22:28:17.005Z,85.21
2019-01-23T22:31:20.920Z,85.19
2019-01-23T22:34:24.768Z,85.23
2019-01-23T22:37:28.573Z,85.23
2019-01-23T22:40:32.380Z,85.27
2019-01-23T22:43:36.185Z,85.26
2019-01-23T22:46:40.016Z,85.23
2019-01-23T22:49:43.914Z,85.24
2019-01-23T22:52:48.078Z,85.18
2019-01-23T22:55:51.902Z,85.13
2019-01-23T22:58:55.734Z,85.13
2019-01-23T23:01:59.548Z,85.07
2019-01-23T23:05:03.433Z,85.09
2019-01-23T23:08:07.992Z,85.12
2019-01-23T23:11:11.900Z,85.09
2019-01-23T23:14:15.730Z,85.15
2019-01-23T23:17:19.603Z,85.15
2019-01-23T23:20:23.586Z,85.24
2019-01-23T23:23:27.474Z,85.41
2019-01-23T23:26:31.316Z,85.34
2019-01-23T23:29:35.205Z,85.39
2019-01-23T23:32:39.107Z,85.38
2019-01-23T23:35:42.915Z,85.58
2019-01-23T23:38:46.805Z,85.68
2019-01-23T23:41:50.618Z,85.58
2019-01-23T23:44:54.453Z,85.57
2019-01-23T23:47:58.285Z,85.54
2019-01-23T23:51:02.196Z,85.55
2019-01-23T23:54:06.175Z,85.54
2019-01-23T23:57:10.003Z,85.56
